createdAt,value
2023-02-02T00:01:51.079Z,2.13
2023-02-02T00:04:21.719Z,2.10
2023-02-02T00:06:48.554Z,2.06
2023-02-02T00:09:16.653Z,2.02
2023-02-02T00:11:43.545Z,2.01
2023-02-02T00:14:10.452Z,2.07
2023-02-02T00:16:38.172Z,2.06
2023-02-02T00:19:09.321Z,2.07
2023-02-02T00:21:36.145Z,2.09
2023-02-02T00:24:02.680Z,2.09
2023-02-02T00:26:33.285Z,2.12
2023-02-02T00:29:00.203Z,2.19
2023-02-02T00:31:26.917Z,2.21
2023-02-02T00:33:53.421Z,2.20
2023-02-02T00:36:20.865Z,2.23
2023-02-02T00:38:48.317Z,2.30
2023-02-02T00:41:14.882Z,2.30
2023-02-02T00:43:41.280Z,2.31
2023-02-02T00:46:09.854Z,2.29
2023-02-02T00:48:36.226Z,2.29
2023-02-02T00:51:02.829Z,2.35
2023-02-02T00:53:29.243Z,2.35
2023-02-02T00:55:55.579Z,2.37
2023-02-02T00:58:21.961Z,2.36
2023-02-02T01:00:48.354Z,2.37
2023-02-02T01:03:15.036Z,2.44
2023-02-02T01:05:41.506Z,2.41
2023-02-02T01:08:08.073Z,2.42
2023-02-02T01:10:34.594Z,2.44
2023-02-02T01:13:01.256Z,2.42
2023-02-02T01:15:27.644Z,2.44
2023-02-02T01:17:54.001Z,2.45
2023-02-02T01:20:20.710Z,2.39
2023-02-02T01:22:47.556Z,2.37
2023-02-02T01:25:14.085Z,2.34
2023-02-02T01:27:40.436Z,2.37
2023-02-02T01:30:07.227Z,2.36
2023-02-02T01:32:33.560Z,2.39
2023-02-02T01:34:59.954Z,2.39
2023-02-02T01:37:26.293Z,2.37
2023-02-02T01:39:52.642Z,2.34
2023-02-02T01:42:21.620Z,2.32
2023-02-02T01:45:02.549Z,2.38
2023-02-02T01:47:31.034Z,2.35
2023-02-02T01:49:57.656Z,2.31
2023-02-02T01:52:25.951Z,2.39
2023-02-02T01:54:54.468Z,2.38
2023-02-02T01:57:26.177Z,2.40
2023-02-02T01:59:53.635Z,2.38
2023-02-02T02:02:20.356Z,2.47
2023-02-02T02:04:47.509Z,2.52
2023-02-02T02:07:13.964Z,2.55
2023-02-02T02:09:40.355Z,2.59
2023-02-02T02:12:15.360Z,2.60
2023-02-02T02:15:08.037Z,2.65
2023-02-02T02:17:46.335Z,2.67
2023-02-02T02:20:31.555Z,2.69
2023-02-02T02:23:25.527Z,2.70
2023-02-02T02:26:29.478Z,2.72
2023-02-02T02:29:14.933Z,2.76
2023-02-02T02:31:50.384Z,2.77
2023-02-02T02:34:29.745Z,2.78
2023-02-02T02:37:14.843Z,2.78
2023-02-02T02:39:48.839Z,2.81
2023-02-02T02:42:19.012Z,2.82
2023-02-02T02:44:46.510Z,2.80
2023-02-02T02:47:12.897Z,2.79
2023-02-02T02:49:46.228Z,2.82
2023-02-02T02:52:12.918Z,2.78
2023-02-02T02:54:59.525Z,2.82
2023-02-02T02:57:25.853Z,2.84
2023-02-02T02:59:58.267Z,2.83
2023-02-02T03:02:33.667Z,2.82
2023-02-02T03:05:05.991Z,2.83
2023-02-02T03:07:35.806Z,2.88
2023-02-02T03:10:04.139Z,2.89
2023-02-02T03:12:30.530Z,2.88
2023-02-02T03:14:56.895Z,2.94
2023-02-02T03:17:23.264Z,2.99
2023-02-02T03:19:49.731Z,2.99
2023-02-02T03:22:16.087Z,3.04
2023-02-02T03:24:42.437Z,3.04
2023-02-02T03:27:08.790Z,3.01
2023-02-02T03:29:35.347Z,3.03
2023-02-02T03:32:01.755Z,3.01
2023-02-02T03:34:28.149Z,3.05
2023-02-02T03:36:54.529Z,3.09
2023-02-02T03:39:20.885Z,3.08
2023-02-02T03:41:47.402Z,3.07
2023-02-02T03:44:13.782Z,3.10
2023-02-02T03:47:30.132Z,3.11
2023-02-02T03:49:56.785Z,3.05
2023-02-02T03:52:23.452Z,3.05
2023-02-02T03:54:49.894Z,3.03
2023-02-02T03:57:16.279Z,3.09
2023-02-02T03:59:42.605Z,3.05
2023-02-02T04:02:08.908Z,3.04
2023-02-02T04:04:35.308Z,3.06
2023-02-02T04:07:01.860Z,3.02
2023-02-02T04:09:28.237Z,3.04
2023-02-02T04:11:54.609Z,3.04
2023-02-02T04:14:21.009Z,3.05
2023-02-02T04:16:47.368Z,3.03
2023-02-02T04:19:14.127Z,3.04
2023-02-02T04:21:40.892Z,3.07
2023-02-02T04:24:10.182Z,3.05
2023-02-02T04:26:36.572Z,3.06
2023-02-02T04:29:03.026Z,3.07
2023-02-02T04:31:29.932Z,3.09
2023-02-02T04:33:56.809Z,3.05
2023-02-02T04:36:23.171Z,3.05
2023-02-02T04:38:53.611Z,3.04
2023-02-02T04:41:20.204Z,3.07
2023-02-02T04:43:46.782Z,3.05
2023-02-02T04:46:14.006Z,3.04
2023-02-02T04:48:41.438Z,3.04
2023-02-02T04:51:09.522Z,3.01
2023-02-02T04:53:36.072Z,3.01
2023-02-02T04:56:05.455Z,3.02
2023-02-02T04:58:31.781Z,3.06
2023-02-02T05:00:58.193Z,3.04
2023-02-02T05:03:24.518Z,3.00
2023-02-02T05:05:50.885Z,3.06
2023-02-02T05:08:17.225Z,3.06
2023-02-02T05:10:43.721Z,3.05
2023-02-02T05:13:10.117Z,3.04
2023-02-02T05:15:36.512Z,3.02
2023-02-02T05:18:02.875Z,3.03
2023-02-02T05:20:29.226Z,3.06
2023-02-02T05:22:55.596Z,3.05
2023-02-02T05:25:22.129Z,3.03
2023-02-02T05:27:48.589Z,2.96
2023-02-02T05:30:15.039Z,2.95
2023-02-02T05:32:41.649Z,3.00
2023-02-02T05:35:08.514Z,3.03
2023-02-02T05:37:34.870Z,3.02
2023-02-02T05:40:01.335Z,3.05
2023-02-02T05:42:27.675Z,3.04
2023-02-02T05:44:54.032Z,3.04
2023-02-02T05:47:20.463Z,3.09
2023-02-02T05:49:46.886Z,3.07
2023-02-02T05:52:17.789Z,3.03
2023-02-02T05:54:44.429Z,3.07
2023-02-02T05:57:10.927Z,3.06
2023-02-02T05:59:37.307Z,3.07
2023-02-02T06:02:03.649Z,3.02
2023-02-02T06:04:30.150Z,3.05
2023-02-02T06:06:56.578Z,2.99
2023-02-02T06:09:23.929Z,2.93
2023-02-02T06:11:50.302Z,2.91
2023-02-02T06:14:16.648Z,2.85
2023-02-02T06:16:43.003Z,2.83
2023-02-02T06:19:09.379Z,2.81
2023-02-02T06:21:35.734Z,2.79
2023-02-02T06:24:02.274Z,2.72
2023-02-02T06:26:29.201Z,2.68
2023-02-02T06:28:55.669Z,2.68
2023-02-02T06:31:22.345Z,2.69
2023-02-02T06:33:52.440Z,2.68
2023-02-02T06:36:18.851Z,2.65
2023-02-02T06:38:48.759Z,2.62
2023-02-02T06:41:15.245Z,2.62
2023-02-02T06:43:41.641Z,2.61
2023-02-02T06:46:08.011Z,2.64
2023-02-02T06:48:34.394Z,2.65
2023-02-02T06:51:00.810Z,2.61
2023-02-02T06:53:27.335Z,2.62
2023-02-02T06:55:57.681Z,2.59
2023-02-02T06:58:24.258Z,2.58
2023-02-02T07:00:50.742Z,2.62
2023-02-02T07:03:17.483Z,2.68
2023-02-02T07:05:43.881Z,2.74
2023-02-02T07:08:10.250Z,2.77
2023-02-02T07:11:12.392Z,2.77
2023-02-02T07:13:24.163Z,2.78
2023-02-02T07:15:50.576Z,2.81
2023-02-02T07:18:16.985Z,2.82
2023-02-02T07:20:43.517Z,2.82
2023-02-02T07:23:09.919Z,2.83
2023-02-02T07:25:36.421Z,2.88
2023-02-02T07:28:02.834Z,2.88
2023-02-02T07:30:29.982Z,2.89
2023-02-02T07:32:57.255Z,2.87
2023-02-02T07:35:24.173Z,2.91
2023-02-02T07:37:51.425Z,2.93
2023-02-02T07:40:17.858Z,2.90
2023-02-02T07:42:46.467Z,2.90
2023-02-02T07:45:24.511Z,2.88
2023-02-02T07:47:57.800Z,2.74
2023-02-02T07:50:25.392Z,2.76
2023-02-02T07:52:52.089Z,2.76
2023-02-02T07:55:18.675Z,2.77
2023-02-02T07:57:45.497Z,2.81
2023-02-02T08:00:12.269Z,2.81
2023-02-02T08:02:39.560Z,2.83
2023-02-02T08:05:07.462Z,2.89
2023-02-02T08:07:34.498Z,2.92
2023-02-02T08:10:00.878Z,2.95
2023-02-02T08:12:28.319Z,2.98
2023-02-02T08:14:54.712Z,3.02
2023-02-02T08:17:23.168Z,3.09
2023-02-02T08:19:49.852Z,3.09
2023-02-02T08:22:16.258Z,3.15
2023-02-02T08:24:43.414Z,3.22
2023-02-02T08:27:10.422Z,3.24
2023-02-02T08:29:38.530Z,3.27
2023-02-02T08:32:05.162Z,3.31
2023-02-02T08:34:34.725Z,3.26
2023-02-02T08:37:01.207Z,3.30
2023-02-02T08:39:27.628Z,3.32
2023-02-02T08:41:57.695Z,3.34
2023-02-02T08:44:25.152Z,3.34
2023-02-02T08:46:54.432Z,3.37
2023-02-02T08:49:20.950Z,3.34
2023-02-02T08:51:47.318Z,3.34
2023-02-02T08:54:13.692Z,3.34
2023-02-02T08:56:40.528Z,3.35
2023-02-02T08:59:07.747Z,3.35
2023-02-02T09:01:35.143Z,3.32
2023-02-02T09:04:04.481Z,3.33
2023-02-02T09:06:38.112Z,3.29
2023-02-02T09:09:06.777Z,3.15
2023-02-02T09:11:33.771Z,3.10
2023-02-02T09:14:02.163Z,3.10
2023-02-02T09:16:29.735Z,3.10
2023-02-02T09:18:56.812Z,3.15
2023-02-02T09:21:24.407Z,3.16
2023-02-02T09:23:51.499Z,3.13
2023-02-02T09:26:22.491Z,3.09
2023-02-02T09:28:56.373Z,3.12
2023-02-02T09:31:23.295Z,3.06
2023-02-02T09:33:49.874Z,3.09
2023-02-02T09:36:20.789Z,3.02
2023-02-02T09:38:47.607Z,3.01
2023-02-02T09:41:20.724Z,3.03
2023-02-02T09:44:00.014Z,2.99
2023-02-02T09:46:49.569Z,2.99
2023-02-02T09:49:19.053Z,3.03
2023-02-02T09:51:47.390Z,3.04
2023-02-02T09:54:18.800Z,3.07
2023-02-02T09:56:50.776Z,3.13
2023-02-02T09:59:22.334Z,3.20
2023-02-02T10:01:52.156Z,3.24
2023-02-02T10:04:21.496Z,3.29
2023-02-02T10:06:52.736Z,3.32
2023-02-02T10:09:34.507Z,3.38
2023-02-02T10:12:13.527Z,3.39
2023-02-02T10:14:46.657Z,3.42
2023-02-02T10:17:28.552Z,3.39
2023-02-02T10:19:57.407Z,3.30
2023-02-02T10:22:27.622Z,3.31
2023-02-02T10:24:54.837Z,3.30
2023-02-02T10:27:28.498Z,3.30
2023-02-02T10:29:59.698Z,3.33
2023-02-02T10:32:26.131Z,3.33
2023-02-02T10:35:13.606Z,3.38
2023-02-02T10:37:40.467Z,3.31
2023-02-02T10:40:25.971Z,3.22
2023-02-02T10:43:26.604Z,3.12
2023-02-02T10:45:53.493Z,3.16
2023-02-02T10:48:22.361Z,3.18
2023-02-02T10:50:50.870Z,3.26
2023-02-02T10:53:17.765Z,3.27
2023-02-02T10:55:49.814Z,3.26
2023-02-02T10:58:19.011Z,3.21
2023-02-02T11:00:46.258Z,3.19
2023-02-02T11:03:14.028Z,3.21
2023-02-02T11:05:59.467Z,3.22
2023-02-02T11:08:32.933Z,3.21
2023-02-02T11:11:09.788Z,3.33
2023-02-02T11:13:39.777Z,3.47
2023-02-02T11:16:15.263Z,3.47
2023-02-02T11:18:44.127Z,3.50
2023-02-02T11:21:19.095Z,3.59
2023-02-02T11:23:53.203Z,3.60
2023-02-02T11:26:19.775Z,3.65
2023-02-02T11:28:49.052Z,3.63
2023-02-02T11:31:41.806Z,3.58
2023-02-02T11:34:18.298Z,3.52
2023-02-02T11:36:57.887Z,3.51
2023-02-02T11:39:24.311Z,3.48
2023-02-02T11:41:50.667Z,3.47
2023-02-02T11:44:24.500Z,3.44
2023-02-02T11:46:51.669Z,3.50
2023-02-02T11:49:19.369Z,3.47
2023-02-02T11:51:56.119Z,3.45
2023-02-02T11:54:27.324Z,3.48
2023-02-02T11:56:55.398Z,3.54
2023-02-02T11:59:32.478Z,3.62
2023-02-02T12:02:21.291Z,3.75
2023-02-02T12:04:48.708Z,3.77
2023-02-02T12:07:33.523Z,3.80
2023-02-02T12:10:01.432Z,3.82
2023-02-02T12:12:36.450Z,3.85
2023-02-02T12:15:11.608Z,3.93
2023-02-02T12:17:39.515Z,3.97
2023-02-02T12:20:27.683Z,4.02
2023-02-02T12:23:09.605Z,4.02
2023-02-02T12:25:50.777Z,4.01
2023-02-02T12:28:31.520Z,3.94
2023-02-02T12:31:07.728Z,3.91
2023-02-02T12:33:49.301Z,3.93
2023-02-02T12:36:15.734Z,3.96
2023-02-02T12:39:05.404Z,3.96
2023-02-02T12:41:50.310Z,3.98
2023-02-02T12:44:19.471Z,4.00
2023-02-02T12:47:04.677Z,4.10
2023-02-02T12:49:42.708Z,4.17
2023-02-02T12:52:16.365Z,4.20
2023-02-02T12:54:49.041Z,4.19
2023-02-02T12:57:35.197Z,4.25
2023-02-02T13:00:01.573Z,4.24
2023-02-02T13:02:36.498Z,4.25
2023-02-02T13:05:17.616Z,4.24
2023-02-02T13:07:47.639Z,4.24
2023-02-02T13:10:35.327Z,4.30
2023-02-02T13:13:04.631Z,4.32
2023-02-02T13:15:51.274Z,4.33
2023-02-02T13:18:23.773Z,4.34
2023-02-02T13:20:55.457Z,4.29
2023-02-02T13:23:26.382Z,4.24
2023-02-02T13:25:53.006Z,4.21
2023-02-02T13:28:28.373Z,4.27
2023-02-02T13:30:57.948Z,4.28
2023-02-02T13:33:28.088Z,4.27
2023-02-02T13:35:55.746Z,4.26
2023-02-02T13:38:24.195Z,4.26
2023-02-02T13:40:51.546Z,4.29
2023-02-02T13:43:38.075Z,4.38
2023-02-02T13:46:29.536Z,4.42
2023-02-02T13:49:00.304Z,4.49
2023-02-02T13:51:26.678Z,4.48
2023-02-02T13:53:56.150Z,4.34
2023-02-02T13:56:34.548Z,4.27
2023-02-02T13:59:19.913Z,4.06
2023-02-02T14:01:48.553Z,4.09
2023-02-02T14:04:21.735Z,4.09
2023-02-02T14:06:56.940Z,4.06
2023-02-02T14:09:25.609Z,4.08
2023-02-02T14:12:00.758Z,4.04
2023-02-02T14:14:35.050Z,4.00
2023-02-02T14:17:01.427Z,3.97
2023-02-02T14:19:30.833Z,4.01
2023-02-02T14:22:05.230Z,4.08
2023-02-02T14:24:37.568Z,4.11
2023-02-02T14:27:07.044Z,4.13
2023-02-02T14:29:36.728Z,4.14
2023-02-02T14:32:03.140Z,4.11
2023-02-02T14:34:56.030Z,4.11
2023-02-02T14:37:26.285Z,4.16
2023-02-02T14:39:52.660Z,4.19
2023-02-02T14:42:40.543Z,4.17
2023-02-02T14:45:12.830Z,4.16
2023-02-02T14:47:45.074Z,4.11
2023-02-02T14:50:16.734Z,3.92
2023-02-02T14:52:43.407Z,3.75
2023-02-02T14:55:21.922Z,3.63
2023-02-02T14:57:59.213Z,3.53
2023-02-02T15:00:31.142Z,3.52
2023-02-02T15:03:17.497Z,3.53
2023-02-02T15:05:46.209Z,3.61
2023-02-02T15:08:26.339Z,3.63
2023-02-02T15:10:57.566Z,3.67
2023-02-02T15:13:25.489Z,3.69
2023-02-02T15:15:59.313Z,3.71
2023-02-02T15:18:29.630Z,3.68
2023-02-02T15:20:59.230Z,3.66
2023-02-02T15:23:30.332Z,3.70
2023-02-02T15:25:57.876Z,3.70
2023-02-02T15:28:44.585Z,3.65
2023-02-02T15:31:11.042Z,3.65
2023-02-02T15:33:51.536Z,3.69
2023-02-02T15:36:23.849Z,3.65
2023-02-02T15:38:52.367Z,3.64
2023-02-02T15:41:21.578Z,3.49
2023-02-02T15:43:48.081Z,3.45
2023-02-02T15:46:24.129Z,3.32
2023-02-02T15:49:09.210Z,3.19
2023-02-02T15:51:35.584Z,3.14
2023-02-02T15:54:01.957Z,3.13
2023-02-02T15:56:29.951Z,3.03
2023-02-02T15:58:57.342Z,3.05
2023-02-02T16:01:24.234Z,3.10
2023-02-02T16:04:13.633Z,3.09
2023-02-02T16:06:40.363Z,2.97
2023-02-02T16:09:07.354Z,2.91
2023-02-02T16:11:34.021Z,2.83
2023-02-02T16:14:02.485Z,2.77
2023-02-02T16:16:30.659Z,2.74
2023-02-02T16:19:13.225Z,2.73
2023-02-02T16:21:46.559Z,2.78
2023-02-02T16:24:16.222Z,2.78
2023-02-02T16:26:42.701Z,2.77
2023-02-02T16:29:17.326Z,2.83
2023-02-02T16:31:47.769Z,2.83
2023-02-02T16:34:15.787Z,2.77
2023-02-02T16:36:42.580Z,2.76
2023-02-02T16:39:15.279Z,2.77
2023-02-02T16:41:41.653Z,2.81
2023-02-02T16:44:27.208Z,2.78
2023-02-02T16:46:53.609Z,2.73
2023-02-02T16:49:24.063Z,2.72
2023-02-02T16:52:22.813Z,2.70
2023-02-02T16:54:54.128Z,2.69
2023-02-02T16:57:22.848Z,2.64
2023-02-02T16:59:53.908Z,2.65
2023-02-02T17:02:29.771Z,2.61
2023-02-02T17:05:04.664Z,2.49
2023-02-02T17:07:31.968Z,2.46
2023-02-02T17:10:16.618Z,2.43
2023-02-02T17:12:43.386Z,2.37
2023-02-02T17:15:18.674Z,2.36
2023-02-02T17:17:47.819Z,2.38
2023-02-02T17:20:15.187Z,2.37
2023-02-02T17:22:43.152Z,2.36
2023-02-02T17:25:21.980Z,2.28
2023-02-02T17:27:48.446Z,2.22
2023-02-02T17:30:16.528Z,2.18
2023-02-02T17:32:42.886Z,2.14
2023-02-02T17:35:16.560Z,2.20
2023-02-02T17:37:43.024Z,2.25
2023-02-02T17:40:13.348Z,2.30
2023-02-02T17:42:39.788Z,2.36
2023-02-02T17:45:11.837Z,2.37
2023-02-02T17:47:38.234Z,2.39
2023-02-02T17:50:04.707Z,2.39
2023-02-02T17:52:31.158Z,2.37
2023-02-02T17:54:57.524Z,2.24
2023-02-02T17:57:23.916Z,2.20
2023-02-02T17:59:50.349Z,2.23
2023-02-02T18:02:17.043Z,2.16
2023-02-02T18:04:45.755Z,2.16
2023-02-02T18:07:12.241Z,2.10
2023-02-02T18:09:38.627Z,2.06
2023-02-02T18:12:05.191Z,2.00
2023-02-02T18:14:31.547Z,2.00
2023-02-02T18:16:57.913Z,1.89
2023-02-02T18:19:24.341Z,1.78
2023-02-02T18:21:50.678Z,1.64
2023-02-02T18:24:17.064Z,1.67
2023-02-02T18:26:43.465Z,1.72
2023-02-02T18:29:09.948Z,1.73
2023-02-02T18:31:36.377Z,1.70
2023-02-02T18:34:02.844Z,1.68
2023-02-02T18:36:29.247Z,1.73
2023-02-02T18:38:56.373Z,1.67
2023-02-02T18:41:22.861Z,1.65
2023-02-02T18:43:49.816Z,1.58
2023-02-02T18:46:16.708Z,1.51
2023-02-02T18:48:43.160Z,1.49
2023-02-02T18:51:16.658Z,1.96
2023-02-02T18:53:43.692Z,2.13
2023-02-02T18:56:11.037Z,2.24
2023-02-02T18:58:37.415Z,2.31
2023-02-02T19:01:10.808Z,2.31
2023-02-02T19:03:37.493Z,2.33
2023-02-02T19:06:23.431Z,2.37
2023-02-02T19:08:49.873Z,2.37
2023-02-02T19:11:20.737Z,2.34
2023-02-02T19:13:47.762Z,2.23
2023-02-02T19:16:30.179Z,2.25
2023-02-02T19:18:57.560Z,2.31
2023-02-02T19:21:24.045Z,2.24
2023-02-02T19:23:50.547Z,2.30
2023-02-02T19:26:22.009Z,2.35
2023-02-02T19:28:48.933Z,2.32
2023-02-02T19:31:15.499Z,2.28
2023-02-02T19:33:46.209Z,2.30
2023-02-02T19:36:17.344Z,2.34
2023-02-02T19:38:43.886Z,2.36
2023-02-02T19:41:21.305Z,2.28
2023-02-02T19:43:48.969Z,2.26
2023-02-02T19:46:16.863Z,2.20
2023-02-02T19:48:43.281Z,2.09
2023-02-02T19:51:37.636Z,2.03
2023-02-02T19:54:05.011Z,2.02
2023-02-02T19:56:36.086Z,2.01
2023-02-02T19:59:02.699Z,1.99
2023-02-02T20:01:33.707Z,1.99
2023-02-02T20:04:00.991Z,1.88
2023-02-02T20:06:30.626Z,1.94
2023-02-02T20:08:57.182Z,1.93
2023-02-02T20:11:23.752Z,1.87
2023-02-02T20:13:51.180Z,1.87
2023-02-02T20:16:21.940Z,1.82
2023-02-02T20:18:53.550Z,1.84
2023-02-02T20:21:27.472Z,1.81
2023-02-02T20:23:53.965Z,1.85
2023-02-02T20:26:29.020Z,1.83
2023-02-02T20:28:57.453Z,1.78
2023-02-02T20:31:25.601Z,1.78
2023-02-02T20:33:53.794Z,1.82
2023-02-02T20:36:20.306Z,1.80
2023-02-02T20:38:46.687Z,1.81
2023-02-02T20:41:15.888Z,1.80
2023-02-02T20:43:42.320Z,1.77
2023-02-02T20:46:08.801Z,1.81
2023-02-02T20:48:35.240Z,1.74
2023-02-02T20:51:01.660Z,1.77
2023-02-02T20:53:28.001Z,1.76
2023-02-02T20:55:58.156Z,1.75
2023-02-02T20:58:25.285Z,1.76
2023-02-02T21:00:52.052Z,1.81
2023-02-02T21:03:18.471Z,1.87
2023-02-02T21:05:45.011Z,1.84
2023-02-02T21:08:11.495Z,1.87
2023-02-02T21:10:37.890Z,1.89
2023-02-02T21:13:04.286Z,1.93
2023-02-02T21:15:30.653Z,1.91
2023-02-02T21:17:57.006Z,1.88
2023-02-02T21:20:23.464Z,1.92
2023-02-02T21:22:50.071Z,1.89
2023-02-02T21:25:16.496Z,1.88
2023-02-02T21:27:44.535Z,1.90
2023-02-02T21:30:11.735Z,1.86
2023-02-02T21:32:38.133Z,1.89
2023-02-02T21:35:06.389Z,1.86
2023-02-02T21:37:35.013Z,1.89
2023-02-02T21:40:01.700Z,1.83
2023-02-02T21:42:28.405Z,1.87
2023-02-02T21:44:58.740Z,1.85
2023-02-02T21:47:35.231Z,1.83
2023-02-02T21:50:15.219Z,1.83
2023-02-02T21:52:41.585Z,1.82
2023-02-02T21:55:24.522Z,1.78
2023-02-02T21:57:50.885Z,1.80
2023-02-02T22:00:23.379Z,1.77
2023-02-02T22:02:51.140Z,1.81
2023-02-02T22:05:19.655Z,1.78
2023-02-02T22:07:47.434Z,1.79
2023-02-02T22:10:37.174Z,1.79
2023-02-02T22:13:23.260Z,1.77
2023-02-02T22:15:51.097Z,1.79
2023-02-02T22:18:17.508Z,1.75
2023-02-02T22:20:47.168Z,1.73
2023-02-02T22:23:18.207Z,1.64
2023-02-02T22:25:45.459Z,1.65
2023-02-02T22:28:32.105Z,1.65
2023-02-02T22:30:59.795Z,1.69
2023-02-02T22:33:26.706Z,1.67
2023-02-02T22:35:53.295Z,1.64
2023-02-02T22:38:21.064Z,1.64
2023-02-02T22:40:48.225Z,1.64
2023-02-02T22:43:16.261Z,1.63
2023-02-02T22:45:43.533Z,1.67
2023-02-02T22:48:09.951Z,1.70
2023-02-02T22:50:36.608Z,1.63
2023-02-02T22:53:03.943Z,1.69
2023-02-02T22:55:31.007Z,1.73
2023-02-02T22:57:57.595Z,1.73
2023-02-02T23:00:28.433Z,1.74
2023-02-02T23:02:55.477Z,1.71
2023-02-02T23:05:23.043Z,1.73
2023-02-02T23:07:49.986Z,1.67
2023-02-02T23:10:17.761Z,1.59
2023-02-02T23:12:44.704Z,1.60
2023-02-02T23:15:11.578Z,1.56
2023-02-02T23:17:38.025Z,1.63
2023-02-02T23:20:05.160Z,1.66
2023-02-02T23:22:31.607Z,1.65
2023-02-02T23:24:58.652Z,1.56
2023-02-02T23:27:25.013Z,1.53
2023-02-02T23:29:51.394Z,1.52
2023-02-02T23:32:18.089Z,1.50
2023-02-02T23:34:44.484Z,1.54
2023-02-02T23:37:10.869Z,1.62
2023-02-02T23:39:37.209Z,1.65
2023-02-02T23:42:03.759Z,1.69
2023-02-02T23:44:30.141Z,1.58
2023-02-02T23:46:57.229Z,1.64
2023-02-02T23:49:23.938Z,1.63
2023-02-02T23:51:50.614Z,1.57
2023-02-02T23:54:16.983Z,1.68
2023-02-02T23:56:43.490Z,1.67
2023-02-02T23:59:09.873Z,1.65
